sensor_id;sensor_type;location;lat;lon;timestamp;P1;durP1;ratioP1;P2;durP2;ratioP2
61096;SDS011;46977;50.936;6.908;2022-08-19T00:00:12;8.80;;;7.13;;
61096;SDS011;46977;50.936;6.908;2022-08-19T00:03:15;8.23;;;7.15;;
61096;SDS011;46977;50.936;6.908;2022-08-19T00:06:18;10.25;;;7.43;;
61096;SDS011;46977;50.936;6.908;2022-08-19T00:09:22;8.48;;;7.05;;
61096;SDS011;46977;50.936;6.908;2022-08-19T00:12:25;8.45;;;7.28;;
61096;SDS011;46977;50.936;6.908;2022-08-19T00:15:29;10.88;;;7.05;;
61096;SDS011;46977;50.936;6.908;2022-08-19T00:18:32;8.73;;;7.25;;
61096;SDS011;46977;50.936;6.908;2022-08-19T00:21:35;8.43;;;7.63;;
61096;SDS011;46977;50.936;6.908;2022-08-19T00:24:41;11.18;;;7.57;;
61096;SDS011;46977;50.936;6.908;2022-08-19T00:27:51;10.27;;;8.00;;
61096;SDS011;46977;50.936;6.908;2022-08-19T00:30:58;9.15;;;7.20;;
61096;SDS011;46977;50.936;6.908;2022-08-19T00:34:00;12.43;;;7.43;;
61096;SDS011;46977;50.936;6.908;2022-08-19T00:37:03;10.02;;;7.10;;
61096;SDS011;46977;50.936;6.908;2022-08-19T00:40:09;8.20;;;7.40;;
61096;SDS011;46977;50.936;6.908;2022-08-19T00:43:13;8.50;;;7.68;;
61096;SDS011;46977;50.936;6.908;2022-08-19T00:46:21;10.13;;;7.65;;
61096;SDS011;46977;50.936;6.908;2022-08-19T00:49:25;8.32;;;7.10;;
61096;SDS011;46977;50.936;6.908;2022-08-19T00:52:32;8.52;;;7.60;;
61096;SDS011;46977;50.936;6.908;2022-08-19T00:55:36;8.90;;;7.90;;
61096;SDS011;46977;50.936;6.908;2022-08-19T00:58:41;10.32;;;7.68;;
61096;SDS011;46977;50.936;6.908;2022-08-19T01:01:45;8.98;;;8.02;;
61096;SDS011;46977;50.936;6.908;2022-08-19T01:04:48;9.65;;;7.75;;
61096;SDS011;46977;50.936;6.908;2022-08-19T01:07:50;9.25;;;8.35;;
61096;SDS011;46977;50.936;6.908;2022-08-19T01:10:53;8.93;;;8.02;;
61096;SDS011;46977;50.936;6.908;2022-08-19T01:13:57;9.43;;;8.38;;
61096;SDS011;46977;50.936;6.908;2022-08-19T01:17:01;11.25;;;8.20;;
61096;SDS011;46977;50.936;6.908;2022-08-19T01:20:04;9.48;;;7.97;;
61096;SDS011;46977;50.936;6.908;2022-08-19T01:23:11;12.82;;;8.85;;
61096;SDS011;46977;50.936;6.908;2022-08-19T01:26:16;8.98;;;7.85;;
61096;SDS011;46977;50.936;6.908;2022-08-19T01:29:20;11.35;;;8.93;;
61096;SDS011;46977;50.936;6.908;2022-08-19T01:32:24;11.00;;;8.23;;
61096;SDS011;46977;50.936;6.908;2022-08-19T01:35:35;9.45;;;8.55;;
61096;SDS011;46977;50.936;6.908;2022-08-19T01:38:39;10.57;;;8.48;;
61096;SDS011;46977;50.936;6.908;2022-08-19T01:41:45;10.00;;;8.68;;
61096;SDS011;46977;50.936;6.908;2022-08-19T01:44:47;13.75;;;10.05;;
61096;SDS011;46977;50.936;6.908;2022-08-19T01:47:50;11.77;;;9.40;;
61096;SDS011;46977;50.936;6.908;2022-08-19T01:51:03;12.77;;;9.95;;
61096;SDS011;46977;50.936;6.908;2022-08-19T01:54:07;13.05;;;9.80;;
61096;SDS011;46977;50.936;6.908;2022-08-19T01:57:10;13.90;;;9.57;;
61096;SDS011;46977;50.936;6.908;2022-08-19T02:00:15;11.30;;;9.32;;
61096;SDS011;46977;50.936;6.908;2022-08-19T02:03:19;11.00;;;8.63;;
61096;SDS011;46977;50.936;6.908;2022-08-19T02:06:21;13.88;;;9.63;;
61096;SDS011;46977;50.936;6.908;2022-08-19T02:09:29;12.50;;;9.38;;
61096;SDS011;46977;50.936;6.908;2022-08-19T02:12:32;13.32;;;10.20;;
61096;SDS011;46977;50.936;6.908;2022-08-19T02:15:34;11.40;;;8.82;;
61096;SDS011;46977;50.936;6.908;2022-08-19T02:18:36;12.52;;;9.35;;
61096;SDS011;46977;50.936;6.908;2022-08-19T02:21:39;13.23;;;9.43;;
61096;SDS011;46977;50.936;6.908;2022-08-19T02:24:44;12.45;;;9.32;;
61096;SDS011;46977;50.936;6.908;2022-08-19T02:27:46;10.90;;;9.55;;
61096;SDS011;46977;50.936;6.908;2022-08-19T02:30:50;15.10;;;9.52;;
61096;SDS011;46977;50.936;6.908;2022-08-19T02:33:53;12.88;;;9.52;;
61096;SDS011;46977;50.936;6.908;2022-08-19T02:36:57;16.27;;;10.27;;
61096;SDS011;46977;50.936;6.908;2022-08-19T02:40:06;18.35;;;11.65;;
61096;SDS011;46977;50.936;6.908;2022-08-19T02:43:13;14.10;;;10.60;;
61096;SDS011;46977;50.936;6.908;2022-08-19T02:46:17;14.27;;;10.05;;
61096;SDS011;46977;50.936;6.908;2022-08-19T02:49:22;14.95;;;10.88;;
61096;SDS011;46977;50.936;6.908;2022-08-19T02:52:24;15.55;;;10.68;;
61096;SDS011;46977;50.936;6.908;2022-08-19T02:55:30;16.10;;;11.43;;
61096;SDS011;46977;50.936;6.908;2022-08-19T02:58:46;15.45;;;11.15;;
61096;SDS011;46977;50.936;6.908;2022-08-19T03:01:50;18.40;;;11.85;;
61096;SDS011;46977;50.936;6.908;2022-08-19T03:04:52;16.38;;;11.02;;
61096;SDS011;46977;50.936;6.908;2022-08-19T03:07:55;15.38;;;10.85;;
61096;SDS011;46977;50.936;6.908;2022-08-19T03:10:58;20.05;;;10.95;;
61096;SDS011;46977;50.936;6.908;2022-08-19T03:14:01;16.48;;;10.60;;
61096;SDS011;46977;50.936;6.908;2022-08-19T03:17:05;16.10;;;11.55;;
61096;SDS011;46977;50.936;6.908;2022-08-19T03:20:08;15.73;;;11.45;;
61096;SDS011;46977;50.936;6.908;2022-08-19T03:23:11;16.85;;;11.52;;
61096;SDS011;46977;50.936;6.908;2022-08-19T03:26:15;15.55;;;11.23;;
61096;SDS011;46977;50.936;6.908;2022-08-19T03:29:18;14.00;;;10.43;;
61096;SDS011;46977;50.936;6.908;2022-08-19T03:32:32;15.25;;;11.50;;
61096;SDS011;46977;50.936;6.908;2022-08-19T03:35:35;19.00;;;12.60;;
61096;SDS011;46977;50.936;6.908;2022-08-19T03:38:43;18.30;;;11.23;;
61096;SDS011;46977;50.936;6.908;2022-08-19T03:41:51;17.98;;;11.68;;
61096;SDS011;46977;50.936;6.908;2022-08-19T03:45:14;16.30;;;10.88;;
61096;SDS011;46977;50.936;6.908;2022-08-19T03:48:16;12.63;;;10.43;;
61096;SDS011;46977;50.936;6.908;2022-08-19T03:51:19;18.30;;;12.40;;
61096;SDS011;46977;50.936;6.908;2022-08-19T03:54:32;19.38;;;12.23;;
61096;SDS011;46977;50.936;6.908;2022-08-19T03:57:36;18.70;;;13.32;;
61096;SDS011;46977;50.936;6.908;2022-08-19T04:00:41;18.50;;;13.30;;
61096;SDS011;46977;50.936;6.908;2022-08-19T04:03:47;15.15;;;12.10;;
61096;SDS011;46977;50.936;6.908;2022-08-19T04:06:50;16.65;;;12.07;;
61096;SDS011;46977;50.936;6.908;2022-08-19T04:09:53;19.92;;;13.13;;
61096;SDS011;46977;50.936;6.908;2022-08-19T04:12:56;17.92;;;12.95;;
61096;SDS011;46977;50.936;6.908;2022-08-19T04:15:59;20.10;;;12.63;;
61096;SDS011;46977;50.936;6.908;2022-08-19T04:19:02;16.02;;;12.60;;
61096;SDS011;46977;50.936;6.908;2022-08-19T04:22:07;19.63;;;13.57;;
61096;SDS011;46977;50.936;6.908;2022-08-19T04:25:10;21.58;;;12.55;;
61096;SDS011;46977;50.936;6.908;2022-08-19T04:28:13;21.38;;;13.48;;
61096;SDS011;46977;50.936;6.908;2022-08-19T04:31:17;21.40;;;14.02;;
61096;SDS011;46977;50.936;6.908;2022-08-19T04:34:24;19.75;;;13.38;;
61096;SDS011;46977;50.936;6.908;2022-08-19T04:37:27;22.42;;;16.30;;
61096;SDS011;46977;50.936;6.908;2022-08-19T04:40:39;21.98;;;14.38;;
61096;SDS011;46977;50.936;6.908;2022-08-19T04:44:02;26.70;;;15.63;;
61096;SDS011;46977;50.936;6.908;2022-08-19T04:47:05;25.17;;;16.58;;
61096;SDS011;46977;50.936;6.908;2022-08-19T04:50:12;23.20;;;15.13;;
61096;SDS011;46977;50.936;6.908;2022-08-19T04:53:18;24.10;;;15.63;;
61096;SDS011;46977;50.936;6.908;2022-08-19T04:56:21;23.58;;;15.40;;
61096;SDS011;46977;50.936;6.908;2022-08-19T04:59:25;26.45;;;15.55;;
61096;SDS011;46977;50.936;6.908;2022-08-19T05:02:27;26.20;;;16.15;;
61096;SDS011;46977;50.936;6.908;2022-08-19T05:05:31;31.13;;;18.02;;
61096;SDS011;46977;50.936;6.908;2022-08-19T05:08:46;29.30;;;18.40;;
61096;SDS011;46977;50.936;6.908;2022-08-19T05:11:50;25.92;;;16.38;;
61096;SDS011;46977;50.936;6.908;2022-08-19T05:14:57;28.80;;;17.98;;
61096;SDS011;46977;50.936;6.908;2022-08-19T05:18:00;28.75;;;18.73;;
61096;SDS011;46977;50.936;6.908;2022-08-19T05:24:44;33.78;;;19.60;;
61096;SDS011;46977;50.936;6.908;2022-08-19T05:28:06;43.55;;;25.17;;
61096;SDS011;46977;50.936;6.908;2022-08-19T05:31:10;30.27;;;20.95;;
61096;SDS011;46977;50.936;6.908;2022-08-19T05:34:12;41.33;;;24.92;;
61096;SDS011;46977;50.936;6.908;2022-08-19T05:37:21;42.63;;;26.90;;
61096;SDS011;46977;50.936;6.908;2022-08-19T05:40:24;40.67;;;24.45;;
61096;SDS011;46977;50.936;6.908;2022-08-19T05:43:27;40.22;;;25.98;;
61096;SDS011;46977;50.936;6.908;2022-08-19T05:46:31;44.85;;;28.70;;
61096;SDS011;46977;50.936;6.908;2022-08-19T05:49:34;48.58;;;30.20;;
61096;SDS011;46977;50.936;6.908;2022-08-19T05:52:38;46.58;;;27.60;;
61096;SDS011;46977;50.936;6.908;2022-08-19T05:55:46;41.85;;;27.08;;
61096;SDS011;46977;50.936;6.908;2022-08-19T05:58:49;49.03;;;29.02;;
61096;SDS011;46977;50.936;6.908;2022-08-19T06:01:53;37.90;;;24.20;;
61096;SDS011;46977;50.936;6.908;2022-08-19T06:05:02;40.17;;;24.00;;
61096;SDS011;46977;50.936;6.908;2022-08-19T06:08:05;49.55;;;29.50;;
61096;SDS011;46977;50.936;6.908;2022-08-19T06:11:13;42.35;;;27.20;;
61096;SDS011;46977;50.936;6.908;2022-08-19T06:14:32;39.15;;;25.95;;
61096;SDS011;46977;50.936;6.908;2022-08-19T06:17:42;39.00;;;23.15;;
61096;SDS011;46977;50.936;6.908;2022-08-19T06:20:46;37.95;;;25.95;;
61096;SDS011;46977;50.936;6.908;2022-08-19T06:23:57;44.05;;;26.27;;
61096;SDS011;46977;50.936;6.908;2022-08-19T06:27:01;39.92;;;24.38;;
61096;SDS011;46977;50.936;6.908;2022-08-19T06:30:05;40.03;;;24.58;;
61096;SDS011;46977;50.936;6.908;2022-08-19T06:33:09;42.60;;;27.27;;
61096;SDS011;46977;50.936;6.908;2022-08-19T06:36:19;37.40;;;24.15;;
61096;SDS011;46977;50.936;6.908;2022-08-19T06:39:26;38.50;;;24.85;;
61096;SDS011;46977;50.936;6.908;2022-08-19T06:42:33;42.53;;;27.50;;
61096;SDS011;46977;50.936;6.908;2022-08-19T06:45:40;41.15;;;27.40;;
61096;SDS011;46977;50.936;6.908;2022-08-19T06:48:50;38.55;;;24.67;;
61096;SDS011;46977;50.936;6.908;2022-08-19T06:51:55;38.25;;;25.65;;
61096;SDS011;46977;50.936;6.908;2022-08-19T06:54:58;35.45;;;23.88;;
61096;SDS011;46977;50.936;6.908;2022-08-19T06:58:01;45.63;;;27.48;;
61096;SDS011;46977;50.936;6.908;2022-08-19T07:01:05;46.78;;;25.08;;
61096;SDS011;46977;50.936;6.908;2022-08-19T07:04:11;38.30;;;24.08;;
61096;SDS011;46977;50.936;6.908;2022-08-19T07:07:14;41.47;;;25.48;;
61096;SDS011;46977;50.936;6.908;2022-08-19T07:10:22;39.95;;;25.52;;
61096;SDS011;46977;50.936;6.908;2022-08-19T07:13:29;45.17;;;26.75;;
61096;SDS011;46977;50.936;6.908;2022-08-19T07:16:37;34.40;;;22.05;;
61096;SDS011;46977;50.936;6.908;2022-08-19T07:19:45;38.47;;;23.33;;
61096;SDS011;46977;50.936;6.908;2022-08-19T07:22:48;38.13;;;23.42;;
61096;SDS011;46977;50.936;6.908;2022-08-19T07:25:51;36.88;;;23.50;;
61096;SDS011;46977;50.936;6.908;2022-08-19T07:28:54;33.72;;;22.70;;
61096;SDS011;46977;50.936;6.908;2022-08-19T07:31:56;37.40;;;25.55;;
61096;SDS011;46977;50.936;6.908;2022-08-19T07:35:05;35.70;;;22.77;;
61096;SDS011;46977;50.936;6.908;2022-08-19T07:38:11;39.13;;;24.88;;
61096;SDS011;46977;50.936;6.908;2022-08-19T07:41:18;39.08;;;26.50;;
61096;SDS011;46977;50.936;6.908;2022-08-19T07:44:30;45.53;;;26.67;;
61096;SDS011;46977;50.936;6.908;2022-08-19T07:47:36;44.90;;;28.42;;
61096;SDS011;46977;50.936;6.908;2022-08-19T07:50:53;40.40;;;26.20;;
61096;SDS011;46977;50.936;6.908;2022-08-19T07:53:56;46.58;;;27.50;;
61096;SDS011;46977;50.936;6.908;2022-08-19T07:56:59;40.58;;;24.67;;
61096;SDS011;46977;50.936;6.908;2022-08-19T08:00:03;54.00;;;31.27;;
61096;SDS011;46977;50.936;6.908;2022-08-19T08:03:13;48.40;;;26.40;;
61096;SDS011;46977;50.936;6.908;2022-08-19T08:06:17;48.95;;;29.58;;
61096;SDS011;46977;50.936;6.908;2022-08-19T08:09:46;49.10;;;29.90;;
61096;SDS011;46977;50.936;6.908;2022-08-19T08:12:51;51.40;;;29.23;;
61096;SDS011;46977;50.936;6.908;2022-08-19T08:16:11;46.10;;;28.58;;
61096;SDS011;46977;50.936;6.908;2022-08-19T08:19:15;49.67;;;29.33;;
61096;SDS011;46977;50.936;6.908;2022-08-19T08:22:28;47.05;;;27.88;;
61096;SDS011;46977;50.936;6.908;2022-08-19T08:25:49;49.63;;;28.88;;
61096;SDS011;46977;50.936;6.908;2022-08-19T08:28:52;42.80;;;26.20;;
61096;SDS011;46977;50.936;6.908;2022-08-19T08:31:55;49.83;;;27.40;;
61096;SDS011;46977;50.936;6.908;2022-08-19T08:35:04;45.10;;;26.77;;
61096;SDS011;46977;50.936;6.908;2022-08-19T08:38:08;39.88;;;26.42;;
61096;SDS011;46977;50.936;6.908;2022-08-19T08:41:16;39.72;;;26.38;;
61096;SDS011;46977;50.936;6.908;2022-08-19T08:44:31;42.85;;;26.55;;
61096;SDS011;46977;50.936;6.908;2022-08-19T08:51:41;43.58;;;27.23;;
61096;SDS011;46977;50.936;6.908;2022-08-19T08:55:03;45.05;;;28.05;;
61096;SDS011;46977;50.936;6.908;2022-08-19T08:58:12;41.45;;;26.42;;
61096;SDS011;46977;50.936;6.908;2022-08-19T09:01:17;37.83;;;24.75;;
61096;SDS011;46977;50.936;6.908;2022-08-19T09:04:22;42.90;;;26.58;;
61096;SDS011;46977;50.936;6.908;2022-08-19T09:07:26;37.42;;;24.08;;
61096;SDS011;46977;50.936;6.908;2022-08-19T09:10:43;28.55;;;19.90;;
61096;SDS011;46977;50.936;6.908;2022-08-19T09:13:51;32.25;;;22.42;;
61096;SDS011;46977;50.936;6.908;2022-08-19T09:17:01;27.08;;;19.52;;
61096;SDS011;46977;50.936;6.908;2022-08-19T09:20:14;24.77;;;19.75;;
61096;SDS011;46977;50.936;6.908;2022-08-19T09:23:18;26.10;;;18.10;;
61096;SDS011;46977;50.936;6.908;2022-08-19T09:26:30;27.90;;;21.27;;
61096;SDS011;46977;50.936;6.908;2022-08-19T09:29:53;25.13;;;19.60;;
61096;SDS011;46977;50.936;6.908;2022-08-19T09:32:56;24.42;;;17.90;;
61096;SDS011;46977;50.936;6.908;2022-08-19T09:36:03;22.17;;;17.67;;
61096;SDS011;46977;50.936;6.908;2022-08-19T09:39:09;23.00;;;16.55;;
61096;SDS011;46977;50.936;6.908;2022-08-19T09:42:18;20.95;;;15.07;;
61096;SDS011;46977;50.936;6.908;2022-08-19T09:45:31;23.95;;;17.60;;
61096;SDS011;46977;50.936;6.908;2022-08-19T09:48:34;22.92;;;15.02;;
61096;SDS011;46977;50.936;6.908;2022-08-19T09:51:36;25.38;;;18.38;;
61096;SDS011;46977;50.936;6.908;2022-08-19T09:54:42;19.90;;;13.07;;
61096;SDS011;46977;50.936;6.908;2022-08-19T09:57:46;18.92;;;15.07;;
61096;SDS011;46977;50.936;6.908;2022-08-19T10:00:48;15.65;;;13.18;;
61096;SDS011;46977;50.936;6.908;2022-08-19T10:03:53;16.73;;;12.27;;
61096;SDS011;46977;50.936;6.908;2022-08-19T10:06:56;16.48;;;12.38;;
61096;SDS011;46977;50.936;6.908;2022-08-19T10:10:04;13.55;;;11.18;;
61096;SDS011;46977;50.936;6.908;2022-08-19T10:13:12;17.70;;;13.60;;
61096;SDS011;46977;50.936;6.908;2022-08-19T10:16:16;11.40;;;8.98;;
61096;SDS011;46977;50.936;6.908;2022-08-19T10:19:21;11.70;;;8.88;;
61096;SDS011;46977;50.936;6.908;2022-08-19T10:22:27;10.25;;;8.77;;
61096;SDS011;46977;50.936;6.908;2022-08-19T10:25:29;13.45;;;11.40;;
61096;SDS011;46977;50.936;6.908;2022-08-19T10:28:40;18.13;;;11.70;;
61096;SDS011;46977;50.936;6.908;2022-08-19T10:31:48;13.40;;;10.45;;
61096;SDS011;46977;50.936;6.908;2022-08-19T10:35:05;12.55;;;11.25;;
61096;SDS011;46977;50.936;6.908;2022-08-19T10:38:10;13.10;;;11.18;;
61096;SDS011;46977;50.936;6.908;2022-08-19T10:41:14;15.18;;;11.48;;
61096;SDS011;46977;50.936;6.908;2022-08-19T10:44:19;13.50;;;11.15;;
61096;SDS011;46977;50.936;6.908;2022-08-19T10:47:23;10.85;;;9.60;;
61096;SDS011;46977;50.936;6.908;2022-08-19T10:50:32;13.27;;;11.57;;
61096;SDS011;46977;50.936;6.908;2022-08-19T10:53:53;15.57;;;11.88;;
61096;SDS011;46977;50.936;6.908;2022-08-19T10:56:57;18.50;;;12.98;;
61096;SDS011;46977;50.936;6.908;2022-08-19T11:00:01;16.10;;;12.55;;
61096;SDS011;46977;50.936;6.908;2022-08-19T11:03:03;16.83;;;12.63;;
61096;SDS011;46977;50.936;6.908;2022-08-19T11:06:06;14.70;;;11.30;;
61096;SDS011;46977;50.936;6.908;2022-08-19T11:09:10;12.80;;;11.00;;
61096;SDS011;46977;50.936;6.908;2022-08-19T11:12:13;12.25;;;10.98;;
61096;SDS011;46977;50.936;6.908;2022-08-19T11:15:22;13.75;;;11.25;;
61096;SDS011;46977;50.936;6.908;2022-08-19T11:18:25;11.45;;;9.65;;
61096;SDS011;46977;50.936;6.908;2022-08-19T11:21:30;9.02;;;8.02;;
61096;SDS011;46977;50.936;6.908;2022-08-19T11:24:33;12.60;;;9.32;;
61096;SDS011;46977;50.936;6.908;2022-08-19T11:27:37;12.40;;;10.65;;
61096;SDS011;46977;50.936;6.908;2022-08-19T11:30:42;15.20;;;9.80;;
61096;SDS011;46977;50.936;6.908;2022-08-19T11:33:45;11.85;;;10.65;;
61096;SDS011;46977;50.936;6.908;2022-08-19T11:36:51;11.88;;;10.68;;
61096;SDS011;46977;50.936;6.908;2022-08-19T11:39:54;11.18;;;10.07;;
61096;SDS011;46977;50.936;6.908;2022-08-19T11:42:56;11.65;;;9.68;;
61096;SDS011;46977;50.936;6.908;2022-08-19T11:46:03;9.90;;;8.90;;
61096;SDS011;46977;50.936;6.908;2022-08-19T11:49:06;14.35;;;9.90;;
61096;SDS011;46977;50.936;6.908;2022-08-19T11:52:15;12.50;;;9.02;;
61096;SDS011;46977;50.936;6.908;2022-08-19T11:55:18;10.82;;;8.93;;
61096;SDS011;46977;50.936;6.908;2022-08-19T11:58:23;12.73;;;8.65;;
61096;SDS011;46977;50.936;6.908;2022-08-19T12:01:30;9.25;;;8.35;;
61096;SDS011;46977;50.936;6.908;2022-08-19T12:04:41;10.48;;;8.50;;
61096;SDS011;46977;50.936;6.908;2022-08-19T12:07:43;9.48;;;8.52;;
61096;SDS011;46977;50.936;6.908;2022-08-19T12:10:48;11.27;;;9.13;;
61096;SDS011;46977;50.936;6.908;2022-08-19T12:13:52;10.15;;;7.97;;
61096;SDS011;46977;50.936;6.908;2022-08-19T12:16:56;9.05;;;8.00;;
61096;SDS011;46977;50.936;6.908;2022-08-19T12:19:59;10.20;;;8.98;;
61096;SDS011;46977;50.936;6.908;2022-08-19T12:23:02;11.05;;;7.72;;
61096;SDS011;46977;50.936;6.908;2022-08-19T12:26:04;8.57;;;7.78;;
61096;SDS011;46977;50.936;6.908;2022-08-19T12:29:07;11.45;;;8.05;;
61096;SDS011;46977;50.936;6.908;2022-08-19T12:32:11;11.00;;;7.90;;
61096;SDS011;46977;50.936;6.908;2022-08-19T12:35:13;11.30;;;7.82;;
61096;SDS011;46977;50.936;6.908;2022-08-19T12:38:16;13.23;;;8.38;;
61096;SDS011;46977;50.936;6.908;2022-08-19T12:41:20;11.57;;;8.40;;
61096;SDS011;46977;50.936;6.908;2022-08-19T12:44:24;14.25;;;9.77;;
61096;SDS011;46977;50.936;6.908;2022-08-19T12:47:34;10.63;;;7.68;;
61096;SDS011;46977;50.936;6.908;2022-08-19T12:50:39;10.20;;;8.00;;
61096;SDS011;46977;50.936;6.908;2022-08-19T12:53:42;13.95;;;7.95;;
61096;SDS011;46977;50.936;6.908;2022-08-19T12:56:44;8.63;;;7.38;;
61096;SDS011;46977;50.936;6.908;2022-08-19T12:59:47;13.68;;;9.23;;
61096;SDS011;46977;50.936;6.908;2022-08-19T13:02:51;12.23;;;8.98;;
61096;SDS011;46977;50.936;6.908;2022-08-19T13:05:54;9.98;;;7.90;;
61096;SDS011;46977;50.936;6.908;2022-08-19T13:08:57;9.13;;;8.07;;
61096;SDS011;46977;50.936;6.908;2022-08-19T13:12:01;11.43;;;7.43;;
61096;SDS011;46977;50.936;6.908;2022-08-19T13:15:13;9.70;;;7.15;;
61096;SDS011;46977;50.936;6.908;2022-08-19T13:18:28;8.30;;;6.70;;
61096;SDS011;46977;50.936;6.908;2022-08-19T13:21:31;9.20;;;5.88;;
61096;SDS011;46977;50.936;6.908;2022-08-19T13:24:33;10.35;;;7.22;;
61096;SDS011;46977;50.936;6.908;2022-08-19T13:27:36;9.27;;;6.38;;
61096;SDS011;46977;50.936;6.908;2022-08-19T13:30:39;7.25;;;6.38;;
61096;SDS011;46977;50.936;6.908;2022-08-19T13:34:01;7.68;;;5.63;;
61096;SDS011;46977;50.936;6.908;2022-08-19T13:37:04;7.10;;;5.93;;
61096;SDS011;46977;50.936;6.908;2022-08-19T13:40:09;6.85;;;5.47;;
61096;SDS011;46977;50.936;6.908;2022-08-19T13:43:18;7.45;;;5.78;;
61096;SDS011;46977;50.936;6.908;2022-08-19T13:46:24;8.52;;;5.70;;
61096;SDS011;46977;50.936;6.908;2022-08-19T13:49:28;7.88;;;5.78;;
61096;SDS011;46977;50.936;6.908;2022-08-19T13:52:32;6.90;;;5.93;;
61096;SDS011;46977;50.936;6.908;2022-08-19T13:55:36;8.05;;;5.60;;
61096;SDS011;46977;50.936;6.908;2022-08-19T13:58:39;9.40;;;6.55;;
61096;SDS011;46977;50.936;6.908;2022-08-19T14:01:41;13.60;;;6.55;;
61096;SDS011;46977;50.936;6.908;2022-08-19T14:04:45;9.02;;;5.60;;
61096;SDS011;46977;50.936;6.908;2022-08-19T14:07:49;7.20;;;4.75;;
61096;SDS011;46977;50.936;6.908;2022-08-19T14:10:51;9.38;;;5.80;;
61096;SDS011;46977;50.936;6.908;2022-08-19T14:13:53;7.70;;;6.28;;
61096;SDS011;46977;50.936;6.908;2022-08-19T14:16:56;7.75;;;5.47;;
61096;SDS011;46977;50.936;6.908;2022-08-19T14:20:00;9.23;;;6.30;;
61096;SDS011;46977;50.936;6.908;2022-08-19T14:23:11;8.07;;;5.10;;
61096;SDS011;46977;50.936;6.908;2022-08-19T14:26:15;8.57;;;5.70;;
61096;SDS011;46977;50.936;6.908;2022-08-19T14:29:21;10.02;;;6.75;;
61096;SDS011;46977;50.936;6.908;2022-08-19T14:32:23;7.93;;;5.57;;
61096;SDS011;46977;50.936;6.908;2022-08-19T14:35:30;10.57;;;5.35;;
61096;SDS011;46977;50.936;6.908;2022-08-19T14:38:38;6.32;;;4.97;;
61096;SDS011;46977;50.936;6.908;2022-08-19T14:41:41;7.07;;;5.55;;
61096;SDS011;46977;50.936;6.908;2022-08-19T14:44:47;6.93;;;4.93;;
61096;SDS011;46977;50.936;6.908;2022-08-19T14:47:51;6.65;;;4.70;;
61096;SDS011;46977;50.936;6.908;2022-08-19T14:50:56;7.47;;;4.50;;
61096;SDS011;46977;50.936;6.908;2022-08-19T14:53:58;6.68;;;3.88;;
61096;SDS011;46977;50.936;6.908;2022-08-19T14:57:01;6.07;;;5.10;;
61096;SDS011;46977;50.936;6.908;2022-08-19T15:00:07;4.63;;;3.53;;
61096;SDS011;46977;50.936;6.908;2022-08-19T15:03:14;3.85;;;3.45;;
61096;SDS011;46977;50.936;6.908;2022-08-19T15:06:18;6.65;;;3.38;;
61096;SDS011;46977;50.936;6.908;2022-08-19T15:09:25;5.53;;;3.78;;
61096;SDS011;46977;50.936;6.908;2022-08-19T15:12:30;4.65;;;3.67;;
61096;SDS011;46977;50.936;6.908;2022-08-19T15:15:34;3.08;;;2.67;;
61096;SDS011;46977;50.936;6.908;2022-08-19T15:18:39;3.80;;;2.92;;
61096;SDS011;46977;50.936;6.908;2022-08-19T15:21:47;4.90;;;2.80;;
61096;SDS011;46977;50.936;6.908;2022-08-19T15:24:49;4.60;;;3.22;;
61096;SDS011;46977;50.936;6.908;2022-08-19T15:27:52;4.63;;;2.97;;
61096;SDS011;46977;50.936;6.908;2022-08-19T15:30:57;6.25;;;2.63;;
61096;SDS011;46977;50.936;6.908;2022-08-19T15:34:02;3.28;;;2.97;;
61096;SDS011;46977;50.936;6.908;2022-08-19T15:37:20;3.42;;;2.30;;
61096;SDS011;46977;50.936;6.908;2022-08-19T15:40:29;3.88;;;2.20;;
61096;SDS011;46977;50.936;6.908;2022-08-19T15:43:32;3.38;;;2.60;;
61096;SDS011;46977;50.936;6.908;2022-08-19T15:46:38;5.13;;;2.47;;
61096;SDS011;46977;50.936;6.908;2022-08-19T15:49:45;4.18;;;2.30;;
61096;SDS011;46977;50.936;6.908;2022-08-19T15:52:53;3.72;;;2.47;;
61096;SDS011;46977;50.936;6.908;2022-08-19T15:55:59;4.03;;;2.35;;
61096;SDS011;46977;50.936;6.908;2022-08-19T15:59:04;2.97;;;2.20;;
61096;SDS011;46977;50.936;6.908;2022-08-19T16:02:25;3.20;;;2.30;;
61096;SDS011;46977;50.936;6.908;2022-08-19T16:05:57;3.60;;;2.42;;
61096;SDS011;46977;50.936;6.908;2022-08-19T16:09:23;2.95;;;2.65;;
61096;SDS011;46977;50.936;6.908;2022-08-19T16:15:34;3.85;;;2.70;;
61096;SDS011;46977;50.936;6.908;2022-08-19T16:18:36;4.60;;;2.42;;
61096;SDS011;46977;50.936;6.908;2022-08-19T16:21:41;4.68;;;2.60;;
61096;SDS011;46977;50.936;6.908;2022-08-19T16:24:46;5.53;;;2.50;;
61096;SDS011;46977;50.936;6.908;2022-08-19T16:27:49;5.97;;;2.00;;
61096;SDS011;46977;50.936;6.908;2022-08-19T16:31:08;5.88;;;2.25;;
61096;SDS011;46977;50.936;6.908;2022-08-19T16:34:15;3.10;;;1.40;;
61096;SDS011;46977;50.936;6.908;2022-08-19T16:37:18;1.65;;;1.55;;
61096;SDS011;46977;50.936;6.908;2022-08-19T16:40:24;2.13;;;1.52;;
61096;SDS011;46977;50.936;6.908;2022-08-19T16:43:27;2.03;;;1.10;;
61096;SDS011;46977;50.936;6.908;2022-08-19T16:46:31;6.85;;;2.67;;
61096;SDS011;46977;50.936;6.908;2022-08-19T16:49:33;3.15;;;1.80;;
61096;SDS011;46977;50.936;6.908;2022-08-19T16:52:56;2.20;;;1.35;;
61096;SDS011;46977;50.936;6.908;2022-08-19T16:56:01;3.00;;;1.15;;
61096;SDS011;46977;50.936;6.908;2022-08-19T16:59:03;3.53;;;1.70;;
61096;SDS011;46977;50.936;6.908;2022-08-19T17:02:07;7.00;;;1.90;;
61096;SDS011;46977;50.936;6.908;2022-08-19T17:05:12;1.45;;;1.17;;
61096;SDS011;46977;50.936;6.908;2022-08-19T17:08:31;5.35;;;1.30;;
61096;SDS011;46977;50.936;6.908;2022-08-19T17:11:39;2.13;;;1.15;;
61096;SDS011;46977;50.936;6.908;2022-08-19T17:15:05;2.30;;;1.10;;
61096;SDS011;46977;50.936;6.908;2022-08-19T17:18:40;1.40;;;1.27;;
61096;SDS011;46977;50.936;6.908;2022-08-19T17:21:42;6.70;;;1.27;;
61096;SDS011;46977;50.936;6.908;2022-08-19T17:24:44;1.75;;;1.10;;
61096;SDS011;46977;50.936;6.908;2022-08-19T17:27:48;3.05;;;1.50;;
61096;SDS011;46977;50.936;6.908;2022-08-19T17:30:52;1.77;;;1.42;;
61096;SDS011;46977;50.936;6.908;2022-08-19T17:33:54;2.33;;;1.20;;
61096;SDS011;46977;50.936;6.908;2022-08-19T17:36:58;5.28;;;1.90;;
61096;SDS011;46977;50.936;6.908;2022-08-19T17:40:01;1.83;;;1.40;;
61096;SDS011;46977;50.936;6.908;2022-08-19T17:43:05;4.43;;;1.40;;
61096;SDS011;46977;50.936;6.908;2022-08-19T17:46:11;5.47;;;1.70;;
61096;SDS011;46977;50.936;6.908;2022-08-19T17:49:19;1.70;;;1.60;;
61096;SDS011;46977;50.936;6.908;2022-08-19T17:52:23;4.68;;;1.80;;
61096;SDS011;46977;50.936;6.908;2022-08-19T17:55:26;3.70;;;1.90;;
61096;SDS011;46977;50.936;6.908;2022-08-19T17:58:30;4.22;;;1.65;;
61096;SDS011;46977;50.936;6.908;2022-08-19T18:01:32;6.50;;;1.73;;
61096;SDS011;46977;50.936;6.908;2022-08-19T18:05:02;3.00;;;1.77;;
61096;SDS011;46977;50.936;6.908;2022-08-19T18:08:13;2.42;;;1.58;;
61096;SDS011;46977;50.936;6.908;2022-08-19T18:11:20;2.58;;;1.90;;
61096;SDS011;46977;50.936;6.908;2022-08-19T18:14:24;5.97;;;1.70;;
61096;SDS011;46977;50.936;6.908;2022-08-19T18:17:35;4.15;;;2.00;;
61096;SDS011;46977;50.936;6.908;2022-08-19T18:20:38;4.22;;;2.13;;
61096;SDS011;46977;50.936;6.908;2022-08-19T18:23:42;2.90;;;1.70;;
61096;SDS011;46977;50.936;6.908;2022-08-19T18:26:46;3.58;;;2.05;;
61096;SDS011;46977;50.936;6.908;2022-08-19T18:29:53;2.70;;;1.58;;
61096;SDS011;46977;50.936;6.908;2022-08-19T18:33:01;4.75;;;2.20;;